sensor_id;sensor_type;location;lat;lon;timestamp;temperature;humidity
16074;DHT22;8141;52.664;5.074;2023-03-02T00:00:17;17.90;50.60
16074;DHT22;8141;52.664;5.074;2023-03-02T00:02:46;17.90;50.70
16074;DHT22;8141;52.664;5.074;2023-03-02T00:05:14;17.90;50.60
16074;DHT22;8141;52.664;5.074;2023-03-02T00:07:42;17.90;50.70
16074;DHT22;8141;52.664;5.074;2023-03-02T00:10:10;17.80;50.60
16074;DHT22;8141;52.664;5.074;2023-03-02T00:12:38;17.90;50.60
16074;DHT22;8141;52.664;5.074;2023-03-02T00:15:07;17.90;50.70
16074;DHT22;8141;52.664;5.074;2023-03-02T00:17:37;17.90;50.70
16074;DHT22;8141;52.664;5.074;2023-03-02T00:20:05;17.80;50.50
16074;DHT22;8141;52.664;5.074;2023-03-02T00:22:36;17.80;50.60
16074;DHT22;8141;52.664;5.074;2023-03-02T00:25:05;17.80;51.20
16074;DHT22;8141;52.664;5.074;2023-03-02T00:27:33;17.80;50.60
16074;DHT22;8141;52.664;5.074;2023-03-02T00:30:02;17.80;50.60
16074;DHT22;8141;52.664;5.074;2023-03-02T00:32:30;17.80;50.60
16074;DHT22;8141;52.664;5.074;2023-03-02T00:34:59;17.80;50.60
16074;DHT22;8141;52.664;5.074;2023-03-02T00:37:27;17.80;50.60
16074;DHT22;8141;52.664;5.074;2023-03-02T00:39:55;17.80;50.60
16074;DHT22;8141;52.664;5.074;2023-03-02T00:42:23;17.80;50.60
16074;DHT22;8141;52.664;5.074;2023-03-02T00:44:51;17.80;50.60
16074;DHT22;8141;52.664;5.074;2023-03-02T00:47:19;17.80;50.50
16074;DHT22;8141;52.664;5.074;2023-03-02T00:49:47;17.80;50.50
16074;DHT22;8141;52.664;5.074;2023-03-02T00:52:17;17.80;50.50
16074;DHT22;8141;52.664;5.074;2023-03-02T00:54:45;17.80;50.60
16074;DHT22;8141;52.664;5.074;2023-03-02T00:57:13;17.80;50.60
16074;DHT22;8141;52.664;5.074;2023-03-02T00:59:41;17.80;50.60
16074;DHT22;8141;52.664;5.074;2023-03-02T01:02:09;17.80;50.60
16074;DHT22;8141;52.664;5.074;2023-03-02T01:04:37;17.80;50.70
16074;DHT22;8141;52.664;5.074;2023-03-02T01:07:07;17.80;50.60
16074;DHT22;8141;52.664;5.074;2023-03-02T01:09:38;17.70;50.50
16074;DHT22;8141;52.664;5.074;2023-03-02T01:12:08;17.80;50.60
16074;DHT22;8141;52.664;5.074;2023-03-02T01:14:37;17.80;50.60
16074;DHT22;8141;52.664;5.074;2023-03-02T01:17:07;17.70;51.10
16074;DHT22;8141;52.664;5.074;2023-03-02T01:19:35;17.70;50.60
16074;DHT22;8141;52.664;5.074;2023-03-02T01:22:04;17.70;50.60
16074;DHT22;8141;52.664;5.074;2023-03-02T01:24:32;17.70;50.50
16074;DHT22;8141;52.664;5.074;2023-03-02T01:27:02;17.70;50.50
16074;DHT22;8141;52.664;5.074;2023-03-02T01:29:30;17.70;50.50
16074;DHT22;8141;52.664;5.074;2023-03-02T01:31:58;17.70;50.50
16074;DHT22;8141;52.664;5.074;2023-03-02T01:34:26;17.70;50.50
16074;DHT22;8141;52.664;5.074;2023-03-02T01:36:54;17.70;50.50
16074;DHT22;8141;52.664;5.074;2023-03-02T01:39:23;17.70;50.50
16074;DHT22;8141;52.664;5.074;2023-03-02T01:41:51;17.70;50.50
16074;DHT22;8141;52.664;5.074;2023-03-02T01:44:38;17.70;50.50
16074;DHT22;8141;52.664;5.074;2023-03-02T01:47:10;17.70;50.40
16074;DHT22;8141;52.664;5.074;2023-03-02T01:49:40;17.70;50.40
16074;DHT22;8141;52.664;5.074;2023-03-02T01:52:11;17.70;50.50
16074;DHT22;8141;52.664;5.074;2023-03-02T01:54:39;17.70;50.50
16074;DHT22;8141;52.664;5.074;2023-03-02T01:57:08;17.70;50.50
16074;DHT22;8141;52.664;5.074;2023-03-02T01:59:38;17.70;50.50
16074;DHT22;8141;52.664;5.074;2023-03-02T02:02:07;17.70;50.30
16074;DHT22;8141;52.664;5.074;2023-03-02T02:04:39;17.70;50.40
16074;DHT22;8141;52.664;5.074;2023-03-02T02:07:08;17.70;50.40
16074;DHT22;8141;52.664;5.074;2023-03-02T02:09:38;17.70;50.50
16074;DHT22;8141;52.664;5.074;2023-03-02T02:12:11;17.70;50.50
16074;DHT22;8141;52.664;5.074;2023-03-02T02:14:41;17.70;50.60
16074;DHT22;8141;52.664;5.074;2023-03-02T02:17:10;17.60;50.40
16074;DHT22;8141;52.664;5.074;2023-03-02T02:19:42;17.60;50.40
16074;DHT22;8141;52.664;5.074;2023-03-02T02:22:14;17.60;50.60
16074;DHT22;8141;52.664;5.074;2023-03-02T02:24:49;17.60;50.40
16074;DHT22;8141;52.664;5.074;2023-03-02T02:27:21;17.60;50.30
16074;DHT22;8141;52.664;5.074;2023-03-02T02:29:55;17.60;50.40
16074;DHT22;8141;52.664;5.074;2023-03-02T02:32:24;17.60;50.40
16074;DHT22;8141;52.664;5.074;2023-03-02T02:34:55;17.60;50.40
16074;DHT22;8141;52.664;5.074;2023-03-02T02:37:26;17.60;50.30
16074;DHT22;8141;52.664;5.074;2023-03-02T02:39:56;17.60;50.30
16074;DHT22;8141;52.664;5.074;2023-03-02T02:42:27;17.60;50.30
16074;DHT22;8141;52.664;5.074;2023-03-02T02:44:58;17.60;50.30
16074;DHT22;8141;52.664;5.074;2023-03-02T02:47:28;17.60;50.40
16074;DHT22;8141;52.664;5.074;2023-03-02T02:49:56;17.60;50.30
16074;DHT22;8141;52.664;5.074;2023-03-02T02:52:24;17.60;50.30
16074;DHT22;8141;52.664;5.074;2023-03-02T02:54:54;17.60;50.30
16074;DHT22;8141;52.664;5.074;2023-03-02T02:57:24;17.60;50.30
16074;DHT22;8141;52.664;5.074;2023-03-02T02:59:56;17.60;50.40
16074;DHT22;8141;52.664;5.074;2023-03-02T03:02:26;17.60;50.20
16074;DHT22;8141;52.664;5.074;2023-03-02T03:04:54;17.50;50.20
16074;DHT22;8141;52.664;5.074;2023-03-02T03:07:29;17.60;50.30
16074;DHT22;8141;52.664;5.074;2023-03-02T03:09:59;17.50;50.30
16074;DHT22;8141;52.664;5.074;2023-03-02T03:12:31;17.60;50.30
16074;DHT22;8141;52.664;5.074;2023-03-02T03:15:00;17.50;50.20
16074;DHT22;8141;52.664;5.074;2023-03-02T03:17:28;17.50;50.20
16074;DHT22;8141;52.664;5.074;2023-03-02T03:19:56;17.60;50.30
16074;DHT22;8141;52.664;5.074;2023-03-02T03:22:32;17.60;50.40
16074;DHT22;8141;52.664;5.074;2023-03-02T03:25:00;17.60;50.30
16074;DHT22;8141;52.664;5.074;2023-03-02T03:27:28;17.60;50.30
16074;DHT22;8141;52.664;5.074;2023-03-02T03:29:58;17.60;50.20
16074;DHT22;8141;52.664;5.074;2023-03-02T03:32:27;17.60;50.30
16074;DHT22;8141;52.664;5.074;2023-03-02T03:34:55;17.50;50.10
16074;DHT22;8141;52.664;5.074;2023-03-02T03:37:23;17.50;50.30
16074;DHT22;8141;52.664;5.074;2023-03-02T03:39:51;17.50;50.10
16074;DHT22;8141;52.664;5.074;2023-03-02T03:42:20;17.60;50.20
16074;DHT22;8141;52.664;5.074;2023-03-02T03:44:48;17.50;50.20
16074;DHT22;8141;52.664;5.074;2023-03-02T03:47:17;17.50;50.20
16074;DHT22;8141;52.664;5.074;2023-03-02T03:49:45;17.50;50.30
16074;DHT22;8141;52.664;5.074;2023-03-02T03:52:13;17.50;50.30
16074;DHT22;8141;52.664;5.074;2023-03-02T03:54:41;17.50;50.20
16074;DHT22;8141;52.664;5.074;2023-03-02T03:57:09;17.50;50.30
16074;DHT22;8141;52.664;5.074;2023-03-02T03:59:37;17.50;50.20
16074;DHT22;8141;52.664;5.074;2023-03-02T04:02:05;17.50;50.10
16074;DHT22;8141;52.664;5.074;2023-03-02T04:04:35;17.40;50.10
16074;DHT22;8141;52.664;5.074;2023-03-02T04:07:03;17.50;50.30
16074;DHT22;8141;52.664;5.074;2023-03-02T04:09:31;17.40;50.10
16074;DHT22;8141;52.664;5.074;2023-03-02T04:12:03;17.50;50.50
16074;DHT22;8141;52.664;5.074;2023-03-02T04:14:32;17.40;50.70
16074;DHT22;8141;52.664;5.074;2023-03-02T04:17:00;17.50;50.60
16074;DHT22;8141;52.664;5.074;2023-03-02T04:19:30;17.40;50.40
16074;DHT22;8141;52.664;5.074;2023-03-02T04:22:02;17.50;50.30
16074;DHT22;8141;52.664;5.074;2023-03-02T04:24:31;17.50;50.40
16074;DHT22;8141;52.664;5.074;2023-03-02T04:26:59;17.50;50.60
16074;DHT22;8141;52.664;5.074;2023-03-02T04:29:27;17.40;50.30
16074;DHT22;8141;52.664;5.074;2023-03-02T04:31:55;17.50;50.30
16074;DHT22;8141;52.664;5.074;2023-03-02T04:34:23;17.40;50.50
16074;DHT22;8141;52.664;5.074;2023-03-02T04:36:52;17.30;50.30
16074;DHT22;8141;52.664;5.074;2023-03-02T04:39:21;17.30;50.30
16074;DHT22;8141;52.664;5.074;2023-03-02T04:41:50;17.30;50.40
16074;DHT22;8141;52.664;5.074;2023-03-02T04:44:20;17.40;50.30
16074;DHT22;8141;52.664;5.074;2023-03-02T04:46:48;17.30;50.30
16074;DHT22;8141;52.664;5.074;2023-03-02T04:49:17;17.30;50.20
16074;DHT22;8141;52.664;5.074;2023-03-02T04:51:47;17.40;50.20
16074;DHT22;8141;52.664;5.074;2023-03-02T04:54:16;17.30;50.20
16074;DHT22;8141;52.664;5.074;2023-03-02T04:56:47;17.40;50.20
16074;DHT22;8141;52.664;5.074;2023-03-02T04:59:18;17.40;50.20
16074;DHT22;8141;52.664;5.074;2023-03-02T05:01:48;17.40;50.20
16074;DHT22;8141;52.664;5.074;2023-03-02T05:04:16;17.40;50.20
16074;DHT22;8141;52.664;5.074;2023-03-02T05:06:45;17.30;50.20
16074;DHT22;8141;52.664;5.074;2023-03-02T05:09:13;17.30;50.20
16074;DHT22;8141;52.664;5.074;2023-03-02T05:11:41;17.40;50.20
16074;DHT22;8141;52.664;5.074;2023-03-02T05:14:11;17.30;50.70
16074;DHT22;8141;52.664;5.074;2023-03-02T05:16:39;17.40;50.10
16074;DHT22;8141;52.664;5.074;2023-03-02T05:19:09;17.30;50.20
16074;DHT22;8141;52.664;5.074;2023-03-02T05:21:40;17.30;50.20
16074;DHT22;8141;52.664;5.074;2023-03-02T05:24:08;17.30;50.20
16074;DHT22;8141;52.664;5.074;2023-03-02T05:26:37;17.30;50.10
16074;DHT22;8141;52.664;5.074;2023-03-02T05:29:05;17.30;50.20
16074;DHT22;8141;52.664;5.074;2023-03-02T05:31:35;17.30;50.10
16074;DHT22;8141;52.664;5.074;2023-03-02T05:34:05;17.30;50.50
16074;DHT22;8141;52.664;5.074;2023-03-02T05:36:35;17.30;50.50
16074;DHT22;8141;52.664;5.074;2023-03-02T05:39:04;17.30;50.80
16074;DHT22;8141;52.664;5.074;2023-03-02T05:41:33;17.30;50.90
16074;DHT22;8141;52.664;5.074;2023-03-02T05:44:01;17.30;51.10
16074;DHT22;8141;52.664;5.074;2023-03-02T05:46:30;17.30;51.30
16074;DHT22;8141;52.664;5.074;2023-03-02T05:48:59;17.30;51.40
16074;DHT22;8141;52.664;5.074;2023-03-02T05:51:27;17.40;51.40
16074;DHT22;8141;52.664;5.074;2023-03-02T05:53:55;17.40;51.60
16074;DHT22;8141;52.664;5.074;2023-03-02T05:56:23;17.40;51.60
16074;DHT22;8141;52.664;5.074;2023-03-02T05:58:51;17.40;51.70
16074;DHT22;8141;52.664;5.074;2023-03-02T06:01:19;17.40;51.80
16074;DHT22;8141;52.664;5.074;2023-03-02T06:03:47;17.50;51.80
16074;DHT22;8141;52.664;5.074;2023-03-02T06:06:17;17.50;51.70
16074;DHT22;8141;52.664;5.074;2023-03-02T06:08:45;17.50;51.80
16074;DHT22;8141;52.664;5.074;2023-03-02T06:11:13;17.50;51.80
16074;DHT22;8141;52.664;5.074;2023-03-02T06:13:41;17.50;51.90
16074;DHT22;8141;52.664;5.074;2023-03-02T06:16:09;17.50;51.90
16074;DHT22;8141;52.664;5.074;2023-03-02T06:18:37;17.50;51.60
16074;DHT22;8141;52.664;5.074;2023-03-02T06:21:07;17.50;51.60
16074;DHT22;8141;52.664;5.074;2023-03-02T06:23:36;17.50;51.60
16074;DHT22;8141;52.664;5.074;2023-03-02T06:26:07;17.50;51.60
16074;DHT22;8141;52.664;5.074;2023-03-02T06:28:36;17.50;51.50
16074;DHT22;8141;52.664;5.074;2023-03-02T06:31:18;17.50;51.50
16074;DHT22;8141;52.664;5.074;2023-03-02T06:33:46;17.50;51.50
16074;DHT22;8141;52.664;5.074;2023-03-02T06:36:14;17.50;51.50
16074;DHT22;8141;52.664;5.074;2023-03-02T06:38:44;17.50;51.50
16074;DHT22;8141;52.664;5.074;2023-03-02T06:41:12;17.50;51.40
16074;DHT22;8141;52.664;5.074;2023-03-02T06:43:40;17.50;51.40
16074;DHT22;8141;52.664;5.074;2023-03-02T06:46:08;17.50;52.00
16074;DHT22;8141;52.664;5.074;2023-03-02T06:48:36;17.50;51.50
16074;DHT22;8141;52.664;5.074;2023-03-02T06:51:04;17.50;51.50
16074;DHT22;8141;52.664;5.074;2023-03-02T06:53:33;17.50;51.60
16074;DHT22;8141;52.664;5.074;2023-03-02T06:56:03;17.50;51.90
16074;DHT22;8141;52.664;5.074;2023-03-02T06:58:31;17.50;51.90
16074;DHT22;8141;52.664;5.074;2023-03-02T07:00:59;17.50;51.90
16074;DHT22;8141;52.664;5.074;2023-03-02T07:03:27;17.50;52.00
16074;DHT22;8141;52.664;5.074;2023-03-02T07:05:55;17.50;52.00
16074;DHT22;8141;52.664;5.074;2023-03-02T07:08:23;17.50;51.90
16074;DHT22;8141;52.664;5.074;2023-03-02T07:10:51;17.60;52.00
16074;DHT22;8141;52.664;5.074;2023-03-02T07:13:21;17.60;52.10
16074;DHT22;8141;52.664;5.074;2023-03-02T07:15:49;17.60;52.20
16074;DHT22;8141;52.664;5.074;2023-03-02T07:18:17;17.60;52.20
16074;DHT22;8141;52.664;5.074;2023-03-02T07:20:45;17.70;52.20
16074;DHT22;8141;52.664;5.074;2023-03-02T07:23:13;17.70;52.20
16074;DHT22;8141;52.664;5.074;2023-03-02T07:25:41;17.70;52.20
16074;DHT22;8141;52.664;5.074;2023-03-02T07:28:09;17.70;52.20
16074;DHT22;8141;52.664;5.074;2023-03-02T07:30:38;17.70;52.30
16074;DHT22;8141;52.664;5.074;2023-03-02T07:33:06;17.70;52.30
16074;DHT22;8141;52.664;5.074;2023-03-02T07:35:34;17.80;52.30
16074;DHT22;8141;52.664;5.074;2023-03-02T07:38:02;17.80;52.30
16074;DHT22;8141;52.664;5.074;2023-03-02T07:40:30;17.80;52.30
16074;DHT22;8141;52.664;5.074;2023-03-02T07:42:59;17.80;52.30
16074;DHT22;8141;52.664;5.074;2023-03-02T07:45:27;17.80;52.10
16074;DHT22;8141;52.664;5.074;2023-03-02T07:47:56;17.80;52.20
16074;DHT22;8141;52.664;5.074;2023-03-02T07:50:24;17.80;52.70
16074;DHT22;8141;52.664;5.074;2023-03-02T07:52:52;17.80;53.60
16074;DHT22;8141;52.664;5.074;2023-03-02T07:55:20;17.90;54.60
16074;DHT22;8141;52.664;5.074;2023-03-02T07:57:48;17.90;54.50
16074;DHT22;8141;52.664;5.074;2023-03-02T08:00:17;17.90;54.10
16074;DHT22;8141;52.664;5.074;2023-03-02T08:02:46;17.90;53.90
16074;DHT22;8141;52.664;5.074;2023-03-02T08:05:15;17.90;53.60
16074;DHT22;8141;52.664;5.074;2023-03-02T08:07:44;17.90;53.50
16074;DHT22;8141;52.664;5.074;2023-03-02T08:10:13;17.90;53.30
16074;DHT22;8141;52.664;5.074;2023-03-02T08:12:42;17.90;53.20
16074;DHT22;8141;52.664;5.074;2023-03-02T08:15:10;17.90;52.90
16074;DHT22;8141;52.664;5.074;2023-03-02T08:17:38;17.90;53.30
16074;DHT22;8141;52.664;5.074;2023-03-02T08:20:06;17.90;53.30
16074;DHT22;8141;52.664;5.074;2023-03-02T08:22:36;17.90;53.00
16074;DHT22;8141;52.664;5.074;2023-03-02T08:25:05;17.90;52.90
16074;DHT22;8141;52.664;5.074;2023-03-02T08:27:34;17.90;52.90
16074;DHT22;8141;52.664;5.074;2023-03-02T08:30:02;17.90;53.10
16074;DHT22;8141;52.664;5.074;2023-03-02T08:32:31;17.90;53.20
16074;DHT22;8141;52.664;5.074;2023-03-02T08:34:59;17.90;53.00
16074;DHT22;8141;52.664;5.074;2023-03-02T08:37:27;17.80;52.70
16074;DHT22;8141;52.664;5.074;2023-03-02T08:39:56;17.90;52.70
16074;DHT22;8141;52.664;5.074;2023-03-02T08:42:24;17.90;53.20
16074;DHT22;8141;52.664;5.074;2023-03-02T08:44:52;17.90;53.10
16074;DHT22;8141;52.664;5.074;2023-03-02T08:47:20;17.90;53.00
16074;DHT22;8141;52.664;5.074;2023-03-02T08:49:48;17.90;52.90
16074;DHT22;8141;52.664;5.074;2023-03-02T08:52:16;17.90;52.80
16074;DHT22;8141;52.664;5.074;2023-03-02T08:54:45;17.90;52.80
16074;DHT22;8141;52.664;5.074;2023-03-02T08:57:14;17.80;52.70
16074;DHT22;8141;52.664;5.074;2023-03-02T08:59:42;17.80;52.90
16074;DHT22;8141;52.664;5.074;2023-03-02T09:02:10;17.80;53.10
16074;DHT22;8141;52.664;5.074;2023-03-02T09:04:39;17.80;53.20
16074;DHT22;8141;52.664;5.074;2023-03-02T09:07:07;17.90;53.20
16074;DHT22;8141;52.664;5.074;2023-03-02T09:09:35;17.90;53.10
16074;DHT22;8141;52.664;5.074;2023-03-02T09:12:03;17.90;53.00
16074;DHT22;8141;52.664;5.074;2023-03-02T09:14:33;18.00;52.90
16074;DHT22;8141;52.664;5.074;2023-03-02T09:17:01;18.10;52.90
16074;DHT22;8141;52.664;5.074;2023-03-02T09:19:29;18.10;52.80
16074;DHT22;8141;52.664;5.074;2023-03-02T09:21:57;18.20;52.70
16074;DHT22;8141;52.664;5.074;2023-03-02T09:24:25;18.30;52.60
16074;DHT22;8141;52.664;5.074;2023-03-02T09:26:53;18.40;52.50
16074;DHT22;8141;52.664;5.074;2023-03-02T09:29:21;18.50;52.40
16074;DHT22;8141;52.664;5.074;2023-03-02T09:31:50;18.60;52.40
16074;DHT22;8141;52.664;5.074;2023-03-02T09:34:19;18.60;52.30
16074;DHT22;8141;52.664;5.074;2023-03-02T09:36:47;18.60;52.20
16074;DHT22;8141;52.664;5.074;2023-03-02T09:39:15;18.70;52.10
16074;DHT22;8141;52.664;5.074;2023-03-02T09:47:34;18.80;51.90
16074;DHT22;8141;52.664;5.074;2023-03-02T09:50:09;18.90;52.00
16074;DHT22;8141;52.664;5.074;2023-03-02T09:52:44;19.00;52.30
16074;DHT22;8141;52.664;5.074;2023-03-02T09:55:17;18.90;52.30
16074;DHT22;8141;52.664;5.074;2023-03-02T09:57:46;19.00;52.30
16074;DHT22;8141;52.664;5.074;2023-03-02T10:00:15;19.00;52.20
16074;DHT22;8141;52.664;5.074;2023-03-02T10:02:48;18.90;52.20
16074;DHT22;8141;52.664;5.074;2023-03-02T10:05:18;19.00;52.10
16074;DHT22;8141;52.664;5.074;2023-03-02T10:07:47;19.00;52.20
16074;DHT22;8141;52.664;5.074;2023-03-02T10:10:23;18.90;52.00
16074;DHT22;8141;52.664;5.074;2023-03-02T10:12:55;19.00;52.00
16074;DHT22;8141;52.664;5.074;2023-03-02T10:15:30;19.00;52.00
16074;DHT22;8141;52.664;5.074;2023-03-02T10:18:08;18.90;52.00
16074;DHT22;8141;52.664;5.074;2023-03-02T10:20:43;18.90;52.10
16074;DHT22;8141;52.664;5.074;2023-03-02T10:26:05;18.90;52.30
16074;DHT22;8141;52.664;5.074;2023-03-02T10:28:40;18.90;52.40
16074;DHT22;8141;52.664;5.074;2023-03-02T10:31:11;18.90;52.40
16074;DHT22;8141;52.664;5.074;2023-03-02T10:33:44;18.80;52.30
16074;DHT22;8141;52.664;5.074;2023-03-02T10:36:17;18.90;52.20
16074;DHT22;8141;52.664;5.074;2023-03-02T10:38:49;18.80;52.10
16074;DHT22;8141;52.664;5.074;2023-03-02T10:41:19;18.80;52.00
16074;DHT22;8141;52.664;5.074;2023-03-02T10:43:50;18.80;51.90
16074;DHT22;8141;52.664;5.074;2023-03-02T10:46:19;18.90;51.80
16074;DHT22;8141;52.664;5.074;2023-03-02T10:48:52;18.90;52.00
16074;DHT22;8141;52.664;5.074;2023-03-02T10:51:24;18.90;51.80
16074;DHT22;8141;52.664;5.074;2023-03-02T10:54:04;18.90;51.70
16074;DHT22;8141;52.664;5.074;2023-03-02T10:56:32;18.90;51.70
16074;DHT22;8141;52.664;5.074;2023-03-02T10:59:11;18.90;51.70
16074;DHT22;8141;52.664;5.074;2023-03-02T11:01:39;18.90;51.80
16074;DHT22;8141;52.664;5.074;2023-03-02T11:04:12;18.90;51.80
16074;DHT22;8141;52.664;5.074;2023-03-02T11:06:41;18.90;51.70
16074;DHT22;8141;52.664;5.074;2023-03-02T11:09:12;18.90;51.80
16074;DHT22;8141;52.664;5.074;2023-03-02T11:11:46;18.90;51.80
16074;DHT22;8141;52.664;5.074;2023-03-02T11:14:16;18.90;52.00
16074;DHT22;8141;52.664;5.074;2023-03-02T11:16:44;18.90;51.90
16074;DHT22;8141;52.664;5.074;2023-03-02T11:19:15;18.90;52.00
16074;DHT22;8141;52.664;5.074;2023-03-02T11:21:45;18.90;52.40
16074;DHT22;8141;52.664;5.074;2023-03-02T11:24:18;18.90;52.20
16074;DHT22;8141;52.664;5.074;2023-03-02T11:26:49;18.80;52.20
16074;DHT22;8141;52.664;5.074;2023-03-02T11:29:23;18.80;52.20
16074;DHT22;8141;52.664;5.074;2023-03-02T11:31:57;18.80;52.40
16074;DHT22;8141;52.664;5.074;2023-03-02T11:34:29;18.80;52.60
16074;DHT22;8141;52.664;5.074;2023-03-02T11:37:02;18.80;52.60
16074;DHT22;8141;52.664;5.074;2023-03-02T11:39:43;18.80;52.60
16074;DHT22;8141;52.664;5.074;2023-03-02T11:42:28;18.80;52.40
16074;DHT22;8141;52.664;5.074;2023-03-02T11:44:59;18.70;52.30
16074;DHT22;8141;52.664;5.074;2023-03-02T11:47:29;18.70;52.50
16074;DHT22;8141;52.664;5.074;2023-03-02T11:50:00;18.70;53.10
16074;DHT22;8141;52.664;5.074;2023-03-02T11:52:32;18.70;52.40
16074;DHT22;8141;52.664;5.074;2023-03-02T11:55:04;18.70;52.40
16074;DHT22;8141;52.664;5.074;2023-03-02T11:57:34;18.70;52.30
16074;DHT22;8141;52.664;5.074;2023-03-02T12:00:09;18.70;52.20
16074;DHT22;8141;52.664;5.074;2023-03-02T12:02:41;18.70;52.00
16074;DHT22;8141;52.664;5.074;2023-03-02T12:05:22;18.70;52.10
16074;DHT22;8141;52.664;5.074;2023-03-02T12:07:57;18.70;52.00
16074;DHT22;8141;52.664;5.074;2023-03-02T12:10:30;18.70;52.20
16074;DHT22;8141;52.664;5.074;2023-03-02T12:13:13;18.70;53.00
16074;DHT22;8141;52.664;5.074;2023-03-02T12:15:44;18.70;52.40
16074;DHT22;8141;52.664;5.074;2023-03-02T12:18:14;18.70;52.50
16074;DHT22;8141;52.664;5.074;2023-03-02T12:20:59;18.70;52.60
16074;DHT22;8141;52.664;5.074;2023-03-02T12:23:29;18.70;52.60
16074;DHT22;8141;52.664;5.074;2023-03-02T12:26:05;18.70;52.70
16074;DHT22;8141;52.664;5.074;2023-03-02T12:28:35;18.60;52.60
16074;DHT22;8141;52.664;5.074;2023-03-02T12:31:06;18.60;52.60
16074;DHT22;8141;52.664;5.074;2023-03-02T12:33:44;18.60;52.60
16074;DHT22;8141;52.664;5.074;2023-03-02T12:36:17;18.60;52.60
16074;DHT22;8141;52.664;5.074;2023-03-02T12:38:51;18.60;52.60
16074;DHT22;8141;52.664;5.074;2023-03-02T12:41:38;18.60;52.70
16074;DHT22;8141;52.664;5.074;2023-03-02T12:47:06;18.60;52.70
16074;DHT22;8141;52.664;5.074;2023-03-02T12:49:42;18.60;53.00
16074;DHT22;8141;52.664;5.074;2023-03-02T12:52:21;18.60;53.30
16074;DHT22;8141;52.664;5.074;2023-03-02T12:55:00;18.70;53.20
16074;DHT22;8141;52.664;5.074;2023-03-02T12:57:29;18.70;53.60
16074;DHT22;8141;52.664;5.074;2023-03-02T12:59:58;18.70;53.30
16074;DHT22;8141;52.664;5.074;2023-03-02T13:02:28;18.70;53.20
16074;DHT22;8141;52.664;5.074;2023-03-02T13:04:58;18.70;53.20
16074;DHT22;8141;52.664;5.074;2023-03-02T13:07:33;18.70;53.20
16074;DHT22;8141;52.664;5.074;2023-03-02T13:10:04;18.70;53.10
16074;DHT22;8141;52.664;5.074;2023-03-02T13:12:35;18.70;53.30
16074;DHT22;8141;52.664;5.074;2023-03-02T13:15:10;18.70;53.20
16074;DHT22;8141;52.664;5.074;2023-03-02T13:17:41;18.70;53.20
16074;DHT22;8141;52.664;5.074;2023-03-02T13:20:11;18.70;53.30
16074;DHT22;8141;52.664;5.074;2023-03-02T13:22:42;18.70;53.20
16074;DHT22;8141;52.664;5.074;2023-03-02T13:25:19;18.80;53.50
16074;DHT22;8141;52.664;5.074;2023-03-02T13:27:53;18.70;53.30
16074;DHT22;8141;52.664;5.074;2023-03-02T13:30:23;18.80;53.30
16074;DHT22;8141;52.664;5.074;2023-03-02T13:32:54;18.80;53.40
16074;DHT22;8141;52.664;5.074;2023-03-02T13:35:28;18.70;53.50
16074;DHT22;8141;52.664;5.074;2023-03-02T13:38:00;18.80;53.60
16074;DHT22;8141;52.664;5.074;2023-03-02T13:40:36;18.70;53.60
16074;DHT22;8141;52.664;5.074;2023-03-02T13:43:23;18.80;53.60
16074;DHT22;8141;52.664;5.074;2023-03-02T13:45:58;18.70;53.60
16074;DHT22;8141;52.664;5.074;2023-03-02T13:48:27;18.70;53.30
16074;DHT22;8141;52.664;5.074;2023-03-02T13:50:57;18.70;53.40
16074;DHT22;8141;52.664;5.074;2023-03-02T13:53:28;18.70;53.50
16074;DHT22;8141;52.664;5.074;2023-03-02T13:55:57;18.70;53.40
16074;DHT22;8141;52.664;5.074;2023-03-02T13:58:26;18.70;53.30
16074;DHT22;8141;52.664;5.074;2023-03-02T14:00:55;18.70;53.30
16074;DHT22;8141;52.664;5.074;2023-03-02T14:03:24;18.70;53.30
16074;DHT22;8141;52.664;5.074;2023-03-02T14:05:54;18.80;53.50
16074;DHT22;8141;52.664;5.074;2023-03-02T14:08:22;18.70;53.40
16074;DHT22;8141;52.664;5.074;2023-03-02T14:10:52;18.70;53.40
16074;DHT22;8141;52.664;5.074;2023-03-02T14:13:23;18.80;53.50
16074;DHT22;8141;52.664;5.074;2023-03-02T14:15:52;18.70;53.20
16074;DHT22;8141;52.664;5.074;2023-03-02T14:18:28;18.70;53.00
16074;DHT22;8141;52.664;5.074;2023-03-02T14:20:59;18.70;53.30
16074;DHT22;8141;52.664;5.074;2023-03-02T14:23:27;18.80;53.30
16074;DHT22;8141;52.664;5.074;2023-03-02T14:25:57;18.70;53.20
16074;DHT22;8141;52.664;5.074;2023-03-02T14:28:26;18.80;53.40
16074;DHT22;8141;52.664;5.074;2023-03-02T14:30:56;18.70;53.20
16074;DHT22;8141;52.664;5.074;2023-03-02T14:33:24;18.80;53.30
16074;DHT22;8141;52.664;5.074;2023-03-02T14:35:53;18.80;53.30
16074;DHT22;8141;52.664;5.074;2023-03-02T14:38:23;18.80;53.30
16074;DHT22;8141;52.664;5.074;2023-03-02T14:40:53;18.80;53.30
16074;DHT22;8141;52.664;5.074;2023-03-02T14:43:23;18.80;53.40
16074;DHT22;8141;52.664;5.074;2023-03-02T14:45:51;18.80;53.10
16074;DHT22;8141;52.664;5.074;2023-03-02T14:48:19;18.80;53.20
16074;DHT22;8141;52.664;5.074;2023-03-02T14:50:47;18.80;53.30
16074;DHT22;8141;52.664;5.074;2023-03-02T14:53:16;18.80;53.30
16074;DHT22;8141;52.664;5.074;2023-03-02T14:55:47;18.80;53.20
16074;DHT22;8141;52.664;5.074;2023-03-02T14:58:15;18.80;53.30
16074;DHT22;8141;52.664;5.074;2023-03-02T15:00:46;18.80;53.30
16074;DHT22;8141;52.664;5.074;2023-03-02T15:03:15;18.80;53.30
16074;DHT22;8141;52.664;5.074;2023-03-02T15:05:49;18.80;53.20
16074;DHT22;8141;52.664;5.074;2023-03-02T15:08:27;18.80;53.30
16074;DHT22;8141;52.664;5.074;2023-03-02T15:10:55;18.90;53.30
16074;DHT22;8141;52.664;5.074;2023-03-02T15:13:24;18.80;53.30
16074;DHT22;8141;52.664;5.074;2023-03-02T15:15:53;18.90;53.30
16074;DHT22;8141;52.664;5.074;2023-03-02T15:18:21;18.90;53.30
16074;DHT22;8141;52.664;5.074;2023-03-02T15:20:50;18.90;53.40
16074;DHT22;8141;52.664;5.074;2023-03-02T15:23:18;18.90;53.40
16074;DHT22;8141;52.664;5.074;2023-03-02T15:25:46;18.90;53.40
16074;DHT22;8141;52.664;5.074;2023-03-02T15:28:14;18.90;53.10
16074;DHT22;8141;52.664;5.074;2023-03-02T15:30:42;18.90;53.20
16074;DHT22;8141;52.664;5.074;2023-03-02T15:33:12;18.90;53.20
16074;DHT22;8141;52.664;5.074;2023-03-02T15:35:40;18.90;53.10
16074;DHT22;8141;52.664;5.074;2023-03-02T15:38:09;18.90;54.40
16074;DHT22;8141;52.664;5.074;2023-03-02T15:40:38;19.00;55.30
16074;DHT22;8141;52.664;5.074;2023-03-02T15:43:06;19.00;55.40
16074;DHT22;8141;52.664;5.074;2023-03-02T15:45:34;19.00;56.20
16074;DHT22;8141;52.664;5.074;2023-03-02T15:48:02;19.00;57.20
16074;DHT22;8141;52.664;5.074;2023-03-02T15:50:31;19.00;56.30
16074;DHT22;8141;52.664;5.074;2023-03-02T15:52:59;19.00;55.90
